sensor_id;sensor_type;location;lat;lon;timestamp;P1;durP1;ratioP1;P2;durP2;ratioP2
19877;SDS011;10101;52.204;9.910;2023-05-16T00:01:53;9.67;;;7.77;;
19877;SDS011;10101;52.204;9.910;2023-05-16T00:04:19;13.20;;;9.07;;
19877;SDS011;10101;52.204;9.910;2023-05-16T00:06:48;12.80;;;7.90;;
19877;SDS011;10101;52.204;9.910;2023-05-16T00:09:15;12.93;;;8.07;;
19877;SDS011;10101;52.204;9.910;2023-05-16T00:11:41;11.70;;;8.27;;
19877;SDS011;10101;52.204;9.910;2023-05-16T00:14:08;11.33;;;7.63;;
19877;SDS011;10101;52.204;9.910;2023-05-16T00:16:35;11.47;;;7.70;;
19877;SDS011;10101;52.204;9.910;2023-05-16T00:19:02;11.33;;;7.47;;
19877;SDS011;10101;52.204;9.910;2023-05-16T00:21:29;12.60;;;7.30;;
19877;SDS011;10101;52.204;9.910;2023-05-16T00:23:57;10.07;;;6.93;;
19877;SDS011;10101;52.204;9.910;2023-05-16T00:26:24;10.33;;;6.70;;
19877;SDS011;10101;52.204;9.910;2023-05-16T00:28:51;12.20;;;7.70;;
19877;SDS011;10101;52.204;9.910;2023-05-16T00:31:17;10.13;;;7.10;;
19877;SDS011;10101;52.204;9.910;2023-05-16T00:33:44;11.30;;;7.07;;
19877;SDS011;10101;52.204;9.910;2023-05-16T00:36:11;8.13;;;6.37;;
19877;SDS011;10101;52.204;9.910;2023-05-16T00:38:38;9.27;;;6.60;;
19877;SDS011;10101;52.204;9.910;2023-05-16T00:41:06;7.40;;;5.03;;
19877;SDS011;10101;52.204;9.910;2023-05-16T00:43:32;8.97;;;5.30;;
19877;SDS011;10101;52.204;9.910;2023-05-16T00:45:59;7.63;;;5.07;;
19877;SDS011;10101;52.204;9.910;2023-05-16T00:48:26;7.53;;;5.40;;
19877;SDS011;10101;52.204;9.910;2023-05-16T00:50:53;8.23;;;6.17;;
19877;SDS011;10101;52.204;9.910;2023-05-16T00:53:20;8.70;;;6.30;;
19877;SDS011;10101;52.204;9.910;2023-05-16T00:55:47;9.00;;;6.37;;
19877;SDS011;10101;52.204;9.910;2023-05-16T00:58:15;9.37;;;6.67;;
19877;SDS011;10101;52.204;9.910;2023-05-16T01:00:42;9.03;;;6.20;;
19877;SDS011;10101;52.204;9.910;2023-05-16T01:03:11;10.33;;;6.57;;
19877;SDS011;10101;52.204;9.910;2023-05-16T01:05:38;7.93;;;5.97;;
19877;SDS011;10101;52.204;9.910;2023-05-16T01:08:05;11.13;;;6.83;;
19877;SDS011;10101;52.204;9.910;2023-05-16T01:10:35;10.97;;;6.70;;
19877;SDS011;10101;52.204;9.910;2023-05-16T01:13:10;14.10;;;6.20;;
19877;SDS011;10101;52.204;9.910;2023-05-16T01:15:46;9.00;;;5.87;;
19877;SDS011;10101;52.204;9.910;2023-05-16T01:18:17;9.17;;;5.90;;
19877;SDS011;10101;52.204;9.910;2023-05-16T01:20:52;7.43;;;5.50;;
19877;SDS011;10101;52.204;9.910;2023-05-16T01:23:32;6.77;;;5.00;;
19877;SDS011;10101;52.204;9.910;2023-05-16T01:26:13;7.07;;;4.77;;
19877;SDS011;10101;52.204;9.910;2023-05-16T01:28:41;9.57;;;4.93;;
19877;SDS011;10101;52.204;9.910;2023-05-16T01:31:10;5.77;;;4.37;;
19877;SDS011;10101;52.204;9.910;2023-05-16T01:33:37;5.23;;;4.17;;
19877;SDS011;10101;52.204;9.910;2023-05-16T01:36:05;6.23;;;3.60;;
19877;SDS011;10101;52.204;9.910;2023-05-16T01:38:40;6.23;;;4.00;;
19877;SDS011;10101;52.204;9.910;2023-05-16T01:41:15;6.90;;;4.07;;
19877;SDS011;10101;52.204;9.910;2023-05-16T01:43:47;6.50;;;3.80;;
19877;SDS011;10101;52.204;9.910;2023-05-16T01:46:20;6.67;;;3.67;;
19877;SDS011;10101;52.204;9.910;2023-05-16T01:48:51;6.97;;;4.20;;
19877;SDS011;10101;52.204;9.910;2023-05-16T01:51:20;6.47;;;4.53;;
19877;SDS011;10101;52.204;9.910;2023-05-16T01:53:49;6.60;;;4.70;;
19877;SDS011;10101;52.204;9.910;2023-05-16T01:56:21;8.27;;;5.03;;
19877;SDS011;10101;52.204;9.910;2023-05-16T01:58:49;6.30;;;4.80;;
19877;SDS011;10101;52.204;9.910;2023-05-16T02:01:18;5.73;;;4.77;;
19877;SDS011;10101;52.204;9.910;2023-05-16T02:03:45;7.93;;;5.27;;
19877;SDS011;10101;52.204;9.910;2023-05-16T02:06:11;7.23;;;5.00;;
19877;SDS011;10101;52.204;9.910;2023-05-16T02:08:38;7.27;;;4.97;;
19877;SDS011;10101;52.204;9.910;2023-05-16T02:11:05;7.70;;;4.67;;
19877;SDS011;10101;52.204;9.910;2023-05-16T02:13:33;9.63;;;5.43;;
19877;SDS011;10101;52.204;9.910;2023-05-16T02:16:00;7.53;;;5.57;;
19877;SDS011;10101;52.204;9.910;2023-05-16T02:18:26;9.80;;;6.07;;
19877;SDS011;10101;52.204;9.910;2023-05-16T02:20:53;6.47;;;5.77;;
19877;SDS011;10101;52.204;9.910;2023-05-16T02:23:20;9.70;;;5.83;;
19877;SDS011;10101;52.204;9.910;2023-05-16T02:25:47;7.43;;;5.60;;
19877;SDS011;10101;52.204;9.910;2023-05-16T02:28:14;6.57;;;5.03;;
19877;SDS011;10101;52.204;9.910;2023-05-16T02:30:42;9.37;;;6.00;;
19877;SDS011;10101;52.204;9.910;2023-05-16T02:33:09;8.40;;;5.57;;
19877;SDS011;10101;52.204;9.910;2023-05-16T02:35:36;7.93;;;6.00;;
19877;SDS011;10101;52.204;9.910;2023-05-16T02:38:03;8.50;;;5.47;;
19877;SDS011;10101;52.204;9.910;2023-05-16T02:40:29;9.20;;;5.70;;
19877;SDS011;10101;52.204;9.910;2023-05-16T02:42:56;9.87;;;5.33;;
19877;SDS011;10101;52.204;9.910;2023-05-16T02:45:23;8.23;;;5.50;;
19877;SDS011;10101;52.204;9.910;2023-05-16T02:47:52;5.90;;;4.37;;
19877;SDS011;10101;52.204;9.910;2023-05-16T02:50:18;8.10;;;4.60;;
19877;SDS011;10101;52.204;9.910;2023-05-16T02:52:45;6.37;;;4.30;;
19877;SDS011;10101;52.204;9.910;2023-05-16T02:55:12;6.10;;;4.13;;
19877;SDS011;10101;52.204;9.910;2023-05-16T02:57:39;6.47;;;3.70;;
19877;SDS011;10101;52.204;9.910;2023-05-16T03:00:06;7.37;;;3.93;;
19877;SDS011;10101;52.204;9.910;2023-05-16T03:02:35;6.37;;;3.60;;
19877;SDS011;10101;52.204;9.910;2023-05-16T03:05:04;4.53;;;3.10;;
19877;SDS011;10101;52.204;9.910;2023-05-16T03:07:31;7.60;;;3.30;;
19877;SDS011;10101;52.204;9.910;2023-05-16T03:09:58;7.37;;;3.67;;
19877;SDS011;10101;52.204;9.910;2023-05-16T03:12:25;6.87;;;3.40;;
19877;SDS011;10101;52.204;9.910;2023-05-16T03:14:51;5.63;;;2.90;;
19877;SDS011;10101;52.204;9.910;2023-05-16T03:17:18;4.63;;;2.70;;
19877;SDS011;10101;52.204;9.910;2023-05-16T03:19:45;5.70;;;3.10;;
19877;SDS011;10101;52.204;9.910;2023-05-16T03:22:13;4.80;;;3.30;;
19877;SDS011;10101;52.204;9.910;2023-05-16T03:24:40;5.27;;;2.50;;
19877;SDS011;10101;52.204;9.910;2023-05-16T03:27:06;6.87;;;2.40;;
19877;SDS011;10101;52.204;9.910;2023-05-16T03:29:33;4.07;;;2.00;;
19877;SDS011;10101;52.204;9.910;2023-05-16T03:32:00;8.63;;;2.30;;
19877;SDS011;10101;52.204;9.910;2023-05-16T03:34:26;3.70;;;1.90;;
19877;SDS011;10101;52.204;9.910;2023-05-16T03:36:53;4.40;;;2.10;;
19877;SDS011;10101;52.204;9.910;2023-05-16T03:39:21;3.37;;;2.17;;
19877;SDS011;10101;52.204;9.910;2023-05-16T03:41:48;6.20;;;1.87;;
19877;SDS011;10101;52.204;9.910;2023-05-16T03:44:16;4.20;;;2.13;;
19877;SDS011;10101;52.204;9.910;2023-05-16T03:46:42;4.27;;;1.80;;
19877;SDS011;10101;52.204;9.910;2023-05-16T03:49:09;6.83;;;2.07;;
19877;SDS011;10101;52.204;9.910;2023-05-16T03:51:36;4.43;;;1.77;;
19877;SDS011;10101;52.204;9.910;2023-05-16T03:54:03;6.23;;;2.20;;
19877;SDS011;10101;52.204;9.910;2023-05-16T03:56:31;6.70;;;2.30;;
19877;SDS011;10101;52.204;9.910;2023-05-16T03:58:58;8.13;;;2.20;;
19877;SDS011;10101;52.204;9.910;2023-05-16T04:01:25;5.17;;;2.10;;
19877;SDS011;10101;52.204;9.910;2023-05-16T04:03:52;6.53;;;2.10;;
19877;SDS011;10101;52.204;9.910;2023-05-16T04:06:18;6.67;;;2.13;;
19877;SDS011;10101;52.204;9.910;2023-05-16T04:08:45;4.43;;;2.10;;
19877;SDS011;10101;52.204;9.910;2023-05-16T04:11:12;7.90;;;2.10;;
19877;SDS011;10101;52.204;9.910;2023-05-16T04:13:40;5.00;;;1.87;;
19877;SDS011;10101;52.204;9.910;2023-05-16T04:16:07;5.23;;;1.97;;
19877;SDS011;10101;52.204;9.910;2023-05-16T04:18:34;8.13;;;2.40;;
19877;SDS011;10101;52.204;9.910;2023-05-16T04:21:00;5.90;;;1.93;;
19877;SDS011;10101;52.204;9.910;2023-05-16T04:23:27;3.80;;;2.10;;
19877;SDS011;10101;52.204;9.910;2023-05-16T04:25:54;6.93;;;2.00;;
19877;SDS011;10101;52.204;9.910;2023-05-16T04:28:21;7.60;;;1.90;;
19877;SDS011;10101;52.204;9.910;2023-05-16T04:30:49;8.77;;;1.70;;
19877;SDS011;10101;52.204;9.910;2023-05-16T04:33:16;5.43;;;1.83;;
19877;SDS011;10101;52.204;9.910;2023-05-16T04:35:42;8.07;;;2.20;;
19877;SDS011;10101;52.204;9.910;2023-05-16T04:38:09;7.60;;;2.37;;
19877;SDS011;10101;52.204;9.910;2023-05-16T04:40:36;8.80;;;2.50;;
19877;SDS011;10101;52.204;9.910;2023-05-16T04:43:04;4.27;;;2.37;;
19877;SDS011;10101;52.204;9.910;2023-05-16T04:45:31;6.83;;;2.13;;
19877;SDS011;10101;52.204;9.910;2023-05-16T04:47:59;7.23;;;2.10;;
19877;SDS011;10101;52.204;9.910;2023-05-16T04:50:26;6.27;;;2.07;;
19877;SDS011;10101;52.204;9.910;2023-05-16T04:52:53;5.83;;;2.10;;
19877;SDS011;10101;52.204;9.910;2023-05-16T04:55:20;7.77;;;2.07;;
19877;SDS011;10101;52.204;9.910;2023-05-16T04:57:46;6.60;;;2.00;;
19877;SDS011;10101;52.204;9.910;2023-05-16T05:00:14;5.50;;;1.70;;
19877;SDS011;10101;52.204;9.910;2023-05-16T05:02:41;4.20;;;1.97;;
19877;SDS011;10101;52.204;9.910;2023-05-16T05:05:10;7.17;;;2.13;;
19877;SDS011;10101;52.204;9.910;2023-05-16T05:07:37;5.27;;;2.10;;
19877;SDS011;10101;52.204;9.910;2023-05-16T05:10:05;5.60;;;2.07;;
19877;SDS011;10101;52.204;9.910;2023-05-16T05:12:32;6.47;;;1.70;;
19877;SDS011;10101;52.204;9.910;2023-05-16T05:15:00;6.40;;;1.70;;
19877;SDS011;10101;52.204;9.910;2023-05-16T05:17:26;9.90;;;2.00;;
19877;SDS011;10101;52.204;9.910;2023-05-16T05:19:53;6.83;;;1.70;;
19877;SDS011;10101;52.204;9.910;2023-05-16T05:22:21;5.60;;;1.87;;
19877;SDS011;10101;52.204;9.910;2023-05-16T05:24:48;6.60;;;2.03;;
19877;SDS011;10101;52.204;9.910;2023-05-16T05:27:15;11.40;;;2.23;;
19877;SDS011;10101;52.204;9.910;2023-05-16T05:29:42;8.23;;;2.07;;
19877;SDS011;10101;52.204;9.910;2023-05-16T05:32:09;11.03;;;1.73;;
19877;SDS011;10101;52.204;9.910;2023-05-16T05:34:36;8.77;;;2.53;;
19877;SDS011;10101;52.204;9.910;2023-05-16T05:37:03;8.73;;;2.00;;
19877;SDS011;10101;52.204;9.910;2023-05-16T05:39:31;8.90;;;1.90;;
19877;SDS011;10101;52.204;9.910;2023-05-16T05:41:58;9.80;;;1.90;;
19877;SDS011;10101;52.204;9.910;2023-05-16T05:44:26;10.73;;;1.87;;
19877;SDS011;10101;52.204;9.910;2023-05-16T05:46:53;10.10;;;1.63;;
19877;SDS011;10101;52.204;9.910;2023-05-16T05:49:21;12.07;;;2.03;;
19877;SDS011;10101;52.204;9.910;2023-05-16T05:51:48;8.40;;;1.43;;
19877;SDS011;10101;52.204;9.910;2023-05-16T05:54:16;10.47;;;1.90;;
19877;SDS011;10101;52.204;9.910;2023-05-16T05:56:44;10.40;;;1.57;;
19877;SDS011;10101;52.204;9.910;2023-05-16T05:59:11;6.93;;;1.70;;
19877;SDS011;10101;52.204;9.910;2023-05-16T06:01:38;10.40;;;2.13;;
19877;SDS011;10101;52.204;9.910;2023-05-16T06:04:04;8.23;;;1.50;;
19877;SDS011;10101;52.204;9.910;2023-05-16T06:06:31;8.67;;;1.33;;
19877;SDS011;10101;52.204;9.910;2023-05-16T06:08:58;10.10;;;1.67;;
19877;SDS011;10101;52.204;9.910;2023-05-16T06:11:25;10.00;;;1.97;;
19877;SDS011;10101;52.204;9.910;2023-05-16T06:13:53;7.43;;;1.63;;
19877;SDS011;10101;52.204;9.910;2023-05-16T06:16:22;11.30;;;1.83;;
19877;SDS011;10101;52.204;9.910;2023-05-16T06:18:49;13.77;;;1.67;;
19877;SDS011;10101;52.204;9.910;2023-05-16T06:21:16;9.27;;;1.60;;
19877;SDS011;10101;52.204;9.910;2023-05-16T06:23:43;6.07;;;1.53;;
19877;SDS011;10101;52.204;9.910;2023-05-16T06:26:10;9.27;;;2.33;;
19877;SDS011;10101;52.204;9.910;2023-05-16T06:28:36;10.00;;;1.50;;
19877;SDS011;10101;52.204;9.910;2023-05-16T06:31:04;7.87;;;1.50;;
19877;SDS011;10101;52.204;9.910;2023-05-16T06:33:31;7.43;;;1.40;;
19877;SDS011;10101;52.204;9.910;2023-05-16T06:35:58;5.47;;;1.10;;
19877;SDS011;10101;52.204;9.910;2023-05-16T06:38:25;9.13;;;2.13;;
19877;SDS011;10101;52.204;9.910;2023-05-16T06:40:52;11.67;;;2.23;;
19877;SDS011;10101;52.204;9.910;2023-05-16T06:43:19;7.77;;;1.40;;
19877;SDS011;10101;52.204;9.910;2023-05-16T06:45:45;9.37;;;1.70;;
19877;SDS011;10101;52.204;9.910;2023-05-16T06:48:13;7.50;;;1.50;;
19877;SDS011;10101;52.204;9.910;2023-05-16T06:50:40;8.77;;;1.50;;
19877;SDS011;10101;52.204;9.910;2023-05-16T06:53:07;10.57;;;1.40;;
19877;SDS011;10101;52.204;9.910;2023-05-16T06:55:36;6.77;;;1.90;;
19877;SDS011;10101;52.204;9.910;2023-05-16T06:58:03;7.27;;;1.40;;
19877;SDS011;10101;52.204;9.910;2023-05-16T07:00:30;9.13;;;1.53;;
19877;SDS011;10101;52.204;9.910;2023-05-16T07:02:56;8.63;;;1.50;;
19877;SDS011;10101;52.204;9.910;2023-05-16T07:05:24;7.83;;;1.43;;
19877;SDS011;10101;52.204;9.910;2023-05-16T07:07:51;7.43;;;1.30;;
19877;SDS011;10101;52.204;9.910;2023-05-16T07:10:18;14.03;;;1.80;;
19877;SDS011;10101;52.204;9.910;2023-05-16T07:12:45;8.70;;;1.37;;
19877;SDS011;10101;52.204;9.910;2023-05-16T07:15:12;15.20;;;1.53;;
19877;SDS011;10101;52.204;9.910;2023-05-16T07:17:39;7.10;;;1.30;;
19877;SDS011;10101;52.204;9.910;2023-05-16T07:20:06;8.00;;;1.37;;
19877;SDS011;10101;52.204;9.910;2023-05-16T07:22:38;7.77;;;1.13;;
19877;SDS011;10101;52.204;9.910;2023-05-16T07:25:05;4.37;;;1.20;;
19877;SDS011;10101;52.204;9.910;2023-05-16T07:27:36;6.13;;;1.33;;
19877;SDS011;10101;52.204;9.910;2023-05-16T07:30:05;7.70;;;1.20;;
19877;SDS011;10101;52.204;9.910;2023-05-16T07:32:33;4.67;;;1.30;;
19877;SDS011;10101;52.204;9.910;2023-05-16T07:34:59;5.83;;;1.30;;
19877;SDS011;10101;52.204;9.910;2023-05-16T07:37:26;9.90;;;1.70;;
19877;SDS011;10101;52.204;9.910;2023-05-16T07:39:54;5.60;;;1.27;;
19877;SDS011;10101;52.204;9.910;2023-05-16T07:42:21;8.00;;;1.37;;
19877;SDS011;10101;52.204;9.910;2023-05-16T07:44:48;9.40;;;1.30;;
19877;SDS011;10101;52.204;9.910;2023-05-16T07:47:15;7.90;;;1.83;;
19877;SDS011;10101;52.204;9.910;2023-05-16T07:49:42;10.97;;;2.03;;
19877;SDS011;10101;52.204;9.910;2023-05-16T07:52:08;4.97;;;1.10;;
19877;SDS011;10101;52.204;9.910;2023-05-16T07:54:35;6.93;;;1.03;;
19877;SDS011;10101;52.204;9.910;2023-05-16T07:57:04;5.60;;;1.17;;
19877;SDS011;10101;52.204;9.910;2023-05-16T07:59:31;4.57;;;1.20;;
19877;SDS011;10101;52.204;9.910;2023-05-16T08:01:58;6.27;;;1.13;;
19877;SDS011;10101;52.204;9.910;2023-05-16T08:04:25;5.10;;;0.90;;
19877;SDS011;10101;52.204;9.910;2023-05-16T08:06:51;7.23;;;1.20;;
19877;SDS011;10101;52.204;9.910;2023-05-16T08:09:18;4.90;;;1.20;;
19877;SDS011;10101;52.204;9.910;2023-05-16T08:11:45;5.93;;;1.37;;
19877;SDS011;10101;52.204;9.910;2023-05-16T08:14:13;5.13;;;1.30;;
19877;SDS011;10101;52.204;9.910;2023-05-16T08:16:40;5.43;;;1.10;;
19877;SDS011;10101;52.204;9.910;2023-05-16T08:19:06;5.77;;;1.00;;
19877;SDS011;10101;52.204;9.910;2023-05-16T08:21:33;2.33;;;1.00;;
19877;SDS011;10101;52.204;9.910;2023-05-16T08:24:00;3.23;;;1.00;;
19877;SDS011;10101;52.204;9.910;2023-05-16T08:26:27;3.83;;;1.07;;
19877;SDS011;10101;52.204;9.910;2023-05-16T08:28:53;3.03;;;1.00;;
19877;SDS011;10101;52.204;9.910;2023-05-16T08:31:21;5.53;;;1.33;;
19877;SDS011;10101;52.204;9.910;2023-05-16T08:33:48;9.93;;;1.43;;
19877;SDS011;10101;52.204;9.910;2023-05-16T08:36:15;2.83;;;1.00;;
19877;SDS011;10101;52.204;9.910;2023-05-16T08:38:43;7.10;;;1.40;;
19877;SDS011;10101;52.204;9.910;2023-05-16T08:41:10;4.40;;;1.10;;
19877;SDS011;10101;52.204;9.910;2023-05-16T08:43:37;6.17;;;1.30;;
19877;SDS011;10101;52.204;9.910;2023-05-16T08:46:05;8.83;;;1.53;;
19877;SDS011;10101;52.204;9.910;2023-05-16T08:48:33;8.13;;;1.10;;
19877;SDS011;10101;52.204;9.910;2023-05-16T08:51:03;5.03;;;1.43;;
19877;SDS011;10101;52.204;9.910;2023-05-16T08:53:35;6.20;;;1.40;;
19877;SDS011;10101;52.204;9.910;2023-05-16T08:56:05;4.40;;;1.37;;
19877;SDS011;10101;52.204;9.910;2023-05-16T08:58:33;2.50;;;1.10;;
19877;SDS011;10101;52.204;9.910;2023-05-16T09:01:00;7.00;;;1.10;;
19877;SDS011;10101;52.204;9.910;2023-05-16T09:03:31;3.97;;;1.17;;
19877;SDS011;10101;52.204;9.910;2023-05-16T09:05:59;4.90;;;1.10;;
19877;SDS011;10101;52.204;9.910;2023-05-16T09:08:26;3.90;;;0.97;;
19877;SDS011;10101;52.204;9.910;2023-05-16T09:10:52;5.73;;;0.90;;
19877;SDS011;10101;52.204;9.910;2023-05-16T09:13:19;5.77;;;1.10;;
19877;SDS011;10101;52.204;9.910;2023-05-16T09:15:47;3.33;;;1.03;;
19877;SDS011;10101;52.204;9.910;2023-05-16T09:18:33;4.17;;;1.10;;
19877;SDS011;10101;52.204;9.910;2023-05-16T09:21:03;4.80;;;1.37;;
19877;SDS011;10101;52.204;9.910;2023-05-16T09:23:30;5.47;;;0.90;;
19877;SDS011;10101;52.204;9.910;2023-05-16T09:25:57;4.17;;;1.00;;
19877;SDS011;10101;52.204;9.910;2023-05-16T09:28:24;5.13;;;1.23;;
19877;SDS011;10101;52.204;9.910;2023-05-16T09:30:51;5.03;;;1.00;;
19877;SDS011;10101;52.204;9.910;2023-05-16T09:33:21;2.87;;;0.90;;
19877;SDS011;10101;52.204;9.910;2023-05-16T09:35:53;5.03;;;1.10;;
19877;SDS011;10101;52.204;9.910;2023-05-16T09:38:21;3.47;;;1.17;;
19877;SDS011;10101;52.204;9.910;2023-05-16T09:40:51;7.90;;;1.30;;
19877;SDS011;10101;52.204;9.910;2023-05-16T09:43:20;4.40;;;1.50;;
19877;SDS011;10101;52.204;9.910;2023-05-16T09:45:51;6.30;;;1.13;;
19877;SDS011;10101;52.204;9.910;2023-05-16T09:48:18;6.63;;;1.20;;
19877;SDS011;10101;52.204;9.910;2023-05-16T09:50:48;4.37;;;1.00;;
19877;SDS011;10101;52.204;9.910;2023-05-16T09:53:27;5.17;;;0.90;;
19877;SDS011;10101;52.204;9.910;2023-05-16T09:56:02;3.07;;;1.00;;
19877;SDS011;10101;52.204;9.910;2023-05-16T09:58:31;4.50;;;1.00;;
19877;SDS011;10101;52.204;9.910;2023-05-16T10:00:59;5.33;;;1.10;;
19877;SDS011;10101;52.204;9.910;2023-05-16T10:03:27;2.83;;;0.90;;
19877;SDS011;10101;52.204;9.910;2023-05-16T10:05:54;6.20;;;1.20;;
19877;SDS011;10101;52.204;9.910;2023-05-16T10:08:22;4.93;;;1.13;;
19877;SDS011;10101;52.204;9.910;2023-05-16T10:10:52;3.07;;;1.00;;
19877;SDS011;10101;52.204;9.910;2023-05-16T10:13:21;3.20;;;0.90;;
19877;SDS011;10101;52.204;9.910;2023-05-16T10:15:48;2.53;;;1.00;;
19877;SDS011;10101;52.204;9.910;2023-05-16T10:18:15;3.83;;;0.90;;
19877;SDS011;10101;52.204;9.910;2023-05-16T10:20:44;3.23;;;0.90;;
19877;SDS011;10101;52.204;9.910;2023-05-16T10:23:15;6.23;;;1.13;;
19877;SDS011;10101;52.204;9.910;2023-05-16T10:25:44;3.63;;;0.83;;
19877;SDS011;10101;52.204;9.910;2023-05-16T10:28:14;2.20;;;0.70;;
19877;SDS011;10101;52.204;9.910;2023-05-16T10:30:42;7.67;;;1.47;;
19877;SDS011;10101;52.204;9.910;2023-05-16T10:33:11;3.60;;;0.80;;
19877;SDS011;10101;52.204;9.910;2023-05-16T10:35:39;2.73;;;0.97;;
19877;SDS011;10101;52.204;9.910;2023-05-16T10:38:06;4.77;;;0.80;;
19877;SDS011;10101;52.204;9.910;2023-05-16T10:40:34;5.77;;;0.90;;
19877;SDS011;10101;52.204;9.910;2023-05-16T10:43:03;5.37;;;1.17;;
19877;SDS011;10101;52.204;9.910;2023-05-16T10:45:32;4.40;;;0.90;;
19877;SDS011;10101;52.204;9.910;2023-05-16T10:48:00;2.67;;;0.67;;
19877;SDS011;10101;52.204;9.910;2023-05-16T10:50:29;6.30;;;0.90;;
19877;SDS011;10101;52.204;9.910;2023-05-16T10:53:12;4.17;;;0.87;;
19877;SDS011;10101;52.204;9.910;2023-05-16T10:55:43;4.90;;;0.80;;
19877;SDS011;10101;52.204;9.910;2023-05-16T10:58:10;3.87;;;0.80;;
19877;SDS011;10101;52.204;9.910;2023-05-16T11:00:39;6.83;;;0.97;;
19877;SDS011;10101;52.204;9.910;2023-05-16T11:03:21;6.17;;;0.87;;
19877;SDS011;10101;52.204;9.910;2023-05-16T11:05:52;2.53;;;0.70;;
19877;SDS011;10101;52.204;9.910;2023-05-16T11:08:24;3.90;;;0.70;;
19877;SDS011;10101;52.204;9.910;2023-05-16T11:11:02;3.47;;;0.80;;
19877;SDS011;10101;52.204;9.910;2023-05-16T11:14:05;6.40;;;0.90;;
19877;SDS011;10101;52.204;9.910;2023-05-16T11:16:32;3.40;;;0.80;;
19877;SDS011;10101;52.204;9.910;2023-05-16T11:19:03;2.27;;;0.70;;
19877;SDS011;10101;52.204;9.910;2023-05-16T11:24:30;2.20;;;0.70;;
19877;SDS011;10101;52.204;9.910;2023-05-16T11:26:59;2.47;;;0.63;;
19877;SDS011;10101;52.204;9.910;2023-05-16T11:29:28;3.57;;;0.60;;
19877;SDS011;10101;52.204;9.910;2023-05-16T11:31:57;1.83;;;0.70;;
19877;SDS011;10101;52.204;9.910;2023-05-16T11:34:24;2.40;;;1.07;;
19877;SDS011;10101;52.204;9.910;2023-05-16T11:36:51;3.00;;;0.90;;
19877;SDS011;10101;52.204;9.910;2023-05-16T11:39:18;8.50;;;1.23;;
19877;SDS011;10101;52.204;9.910;2023-05-16T11:41:45;4.23;;;1.10;;
19877;SDS011;10101;52.204;9.910;2023-05-16T11:44:11;4.13;;;0.70;;
19877;SDS011;10101;52.204;9.910;2023-05-16T11:46:40;7.13;;;1.10;;
19877;SDS011;10101;52.204;9.910;2023-05-16T11:49:07;5.73;;;1.40;;
19877;SDS011;10101;52.204;9.910;2023-05-16T11:51:36;4.53;;;0.80;;
19877;SDS011;10101;52.204;9.910;2023-05-16T11:54:03;2.50;;;0.87;;
19877;SDS011;10101;52.204;9.910;2023-05-16T11:56:31;5.50;;;0.70;;
19877;SDS011;10101;52.204;9.910;2023-05-16T11:58:59;5.70;;;1.10;;
19877;SDS011;10101;52.204;9.910;2023-05-16T12:01:30;3.87;;;1.37;;
19877;SDS011;10101;52.204;9.910;2023-05-16T12:04:00;3.63;;;0.90;;
19877;SDS011;10101;52.204;9.910;2023-05-16T12:06:28;4.07;;;0.97;;
19877;SDS011;10101;52.204;9.910;2023-05-16T12:08:55;3.67;;;1.10;;
19877;SDS011;10101;52.204;9.910;2023-05-16T12:11:22;3.50;;;0.83;;
19877;SDS011;10101;52.204;9.910;2023-05-16T12:13:49;3.97;;;0.93;;
19877;SDS011;10101;52.204;9.910;2023-05-16T12:16:16;2.93;;;1.00;;
19877;SDS011;10101;52.204;9.910;2023-05-16T12:18:43;5.17;;;1.10;;
19877;SDS011;10101;52.204;9.910;2023-05-16T12:21:11;3.43;;;1.27;;
19877;SDS011;10101;52.204;9.910;2023-05-16T12:23:38;2.93;;;0.93;;
19877;SDS011;10101;52.204;9.910;2023-05-16T12:26:07;3.93;;;1.00;;
19877;SDS011;10101;52.204;9.910;2023-05-16T12:28:34;3.00;;;0.70;;
19877;SDS011;10101;52.204;9.910;2023-05-16T12:31:02;3.97;;;0.80;;
19877;SDS011;10101;52.204;9.910;2023-05-16T12:33:29;3.23;;;0.70;;
19877;SDS011;10101;52.204;9.910;2023-05-16T12:35:56;4.23;;;0.80;;
19877;SDS011;10101;52.204;9.910;2023-05-16T12:38:27;2.07;;;0.53;;
19877;SDS011;10101;52.204;9.910;2023-05-16T12:40:56;1.87;;;0.70;;
19877;SDS011;10101;52.204;9.910;2023-05-16T12:43:23;7.13;;;1.20;;
19877;SDS011;10101;52.204;9.910;2023-05-16T12:45:52;2.70;;;0.70;;
19877;SDS011;10101;52.204;9.910;2023-05-16T12:48:19;2.57;;;0.70;;
19877;SDS011;10101;52.204;9.910;2023-05-16T12:50:47;3.23;;;0.70;;
19877;SDS011;10101;52.204;9.910;2023-05-16T12:53:15;1.47;;;0.70;;
19877;SDS011;10101;52.204;9.910;2023-05-16T12:55:44;8.47;;;0.90;;
19877;SDS011;10101;52.204;9.910;2023-05-16T12:58:10;3.33;;;0.77;;
19877;SDS011;10101;52.204;9.910;2023-05-16T13:00:37;3.23;;;0.90;;
19877;SDS011;10101;52.204;9.910;2023-05-16T13:03:04;2.77;;;0.70;;
19877;SDS011;10101;52.204;9.910;2023-05-16T13:05:32;4.27;;;0.83;;
19877;SDS011;10101;52.204;9.910;2023-05-16T13:07:59;2.70;;;0.90;;
19877;SDS011;10101;52.204;9.910;2023-05-16T13:10:27;2.93;;;0.87;;
19877;SDS011;10101;52.204;9.910;2023-05-16T13:12:55;5.73;;;0.90;;
19877;SDS011;10101;52.204;9.910;2023-05-16T13:15:23;2.53;;;0.73;;
19877;SDS011;10101;52.204;9.910;2023-05-16T13:17:51;3.13;;;1.10;;
19877;SDS011;10101;52.204;9.910;2023-05-16T13:20:18;2.47;;;0.90;;
19877;SDS011;10101;52.204;9.910;2023-05-16T13:22:45;5.13;;;1.13;;
19877;SDS011;10101;52.204;9.910;2023-05-16T13:25:12;2.63;;;0.80;;
19877;SDS011;10101;52.204;9.910;2023-05-16T13:27:38;2.50;;;0.70;;
19877;SDS011;10101;52.204;9.910;2023-05-16T13:30:07;4.57;;;1.10;;
19877;SDS011;10101;52.204;9.910;2023-05-16T13:32:35;8.63;;;1.10;;
19877;SDS011;10101;52.204;9.910;2023-05-16T13:35:02;4.50;;;0.80;;
19877;SDS011;10101;52.204;9.910;2023-05-16T13:37:30;4.50;;;1.03;;
19877;SDS011;10101;52.204;9.910;2023-05-16T13:39:56;2.83;;;1.00;;
19877;SDS011;10101;52.204;9.910;2023-05-16T13:42:23;6.17;;;0.87;;
19877;SDS011;10101;52.204;9.910;2023-05-16T13:44:50;2.50;;;0.87;;
19877;SDS011;10101;52.204;9.910;2023-05-16T13:47:18;4.50;;;0.90;;
19877;SDS011;10101;52.204;9.910;2023-05-16T13:49:45;3.93;;;0.90;;
19877;SDS011;10101;52.204;9.910;2023-05-16T13:52:12;4.77;;;1.00;;
19877;SDS011;10101;52.204;9.910;2023-05-16T13:54:40;2.57;;;0.70;;
19877;SDS011;10101;52.204;9.910;2023-05-16T13:57:07;2.47;;;1.00;;
19877;SDS011;10101;52.204;9.910;2023-05-16T13:59:34;4.70;;;1.23;;
19877;SDS011;10101;52.204;9.910;2023-05-16T14:02:01;1.90;;;0.70;;
19877;SDS011;10101;52.204;9.910;2023-05-16T14:04:29;3.17;;;1.20;;
19877;SDS011;10101;52.204;9.910;2023-05-16T14:06:55;5.20;;;0.83;;
19877;SDS011;10101;52.204;9.910;2023-05-16T14:09:22;2.83;;;0.70;;
19877;SDS011;10101;52.204;9.910;2023-05-16T14:11:49;2.30;;;0.80;;
19877;SDS011;10101;52.204;9.910;2023-05-16T14:14:16;1.47;;;0.60;;
19877;SDS011;10101;52.204;9.910;2023-05-16T14:16:43;1.37;;;0.70;;
19877;SDS011;10101;52.204;9.910;2023-05-16T14:19:10;1.33;;;0.60;;
19877;SDS011;10101;52.204;9.910;2023-05-16T14:21:38;2.27;;;1.00;;
19877;SDS011;10101;52.204;9.910;2023-05-16T14:24:05;3.10;;;0.83;;
19877;SDS011;10101;52.204;9.910;2023-05-16T14:26:32;3.20;;;0.57;;
19877;SDS011;10101;52.204;9.910;2023-05-16T14:28:59;2.17;;;0.70;;
19877;SDS011;10101;52.204;9.910;2023-05-16T14:31:26;1.90;;;0.77;;
19877;SDS011;10101;52.204;9.910;2023-05-16T14:33:54;1.80;;;1.00;;
19877;SDS011;10101;52.204;9.910;2023-05-16T14:36:20;2.70;;;0.90;;
19877;SDS011;10101;52.204;9.910;2023-05-16T14:38:48;3.27;;;0.70;;
19877;SDS011;10101;52.204;9.910;2023-05-16T14:41:15;3.40;;;0.80;;
19877;SDS011;10101;52.204;9.910;2023-05-16T14:43:42;3.00;;;0.70;;
19877;SDS011;10101;52.204;9.910;2023-05-16T14:46:10;4.77;;;0.80;;
19877;SDS011;10101;52.204;9.910;2023-05-16T14:48:36;3.10;;;0.90;;
19877;SDS011;10101;52.204;9.910;2023-05-16T14:51:03;1.53;;;0.70;;
19877;SDS011;10101;52.204;9.910;2023-05-16T14:53:31;2.43;;;0.77;;